Time,TemperatureF,DewpointF,PressureIn,WindDirection,WindDirectionDegrees,WindSpeedMPH,WindSpeedGustMPH,Humidity,HourlyPrecipIn,Conditions,Clouds,dailyrainin,SoftwareType,DateUTC
2013-05-08 00:01:00,55.8,25.6,30.10,NW,313,5.8,5.8,31,0.00,,CLR,0.00,VWS V14.01,2013-05-08 06:01:00,
2013-05-08 00:06:00,55.9,25.0,30.10,NW,313,5.8,5.8,30,0.00,,OVC100,0.00,VWS V14.01,2013-05-08 06:06:00,
2013-05-08 00:11:00,55.8,25.6,30.10,NW,313,5.8,5.8,31,0.00,,OVC100,0.00,VWS V14.01,2013-05-08 06:11:00,
2013-05-08 00:16:00,55.0,25.7,30.10,NW,313,5.8,5.8,32,0.00,,OVC100,0.00,VWS V14.01,2013-05-08 06:16:00,
2013-05-08 00:21:00,54.7,25.4,30.10,NW,313,5.8,5.8,32,0.00,,OVC100,0.00,VWS V14.01,2013-05-08 06:21:00,
2013-05-08 00:26:00,55.0,25.7,30.10,NW,313,5.8,5.8,32,0.00,,OVC100,0.00,VWS V14.01,2013-05-08 06:26:00,
2013-05-08 00:31:00,54.9,26.3,30.10,NW,313,5.8,5.8,33,0.00,,OVC100,0.00,VWS V14.01,2013-05-08 06:31:00,
2013-05-08 00:36:00,54.9,27.0,30.10,NW,313,5.8,5.8,34,0.00,,OVC100,0.00,VWS V14.01,2013-05-08 06:36:00,
2013-05-08 00:41:00,55.0,27.2,30.10,NW,313,5.8,5.8,34,0.00,,OVC100,0.00,VWS V14.01,2013-05-08 06:41:00,
2013-05-08 00:46:00,54.9,27.8,30.10,NW,313,5.8,5.8,35,0.00,,OVC100,0.00,VWS V14.01,2013-05-08 06:46:00,
2013-05-08 00:51:00,54.5,28.1,30.13,NW,313,5.8,5.8,36,0.00,,OVC100,0.00,VWS V14.01,2013-05-08 06:51:00,
2013-05-08 00:56:00,54.0,27.6,30.13,NW,313,5.8,5.8,36,0.00,,OVC100,0.00,VWS V14.01,2013-05-08 06:56:00,
2013-05-08 01:01:00,53.2,28.3,30.13,NW,313,5.8,5.8,38,0.00,,OVC100,0.00,VWS V14.01,2013-05-08 07:01:00,
2013-05-08 01:06:00,53.1,28.8,30.13,NW,313,5.8,5.8,39,0.00,,OVC100,0.00,VWS V14.01,2013-05-08 07:06:00,
2013-05-08 01:11:00,52.7,29.1,30.13,NW,313,5.8,5.8,40,0.00,,OVC100,0.00,VWS V14.01,2013-05-08 07:11:00,
2013-05-08 01:16:00,52.5,29.5,30.13,NW,313,5.8,5.8,41,0.00,,OVC100,0.00,VWS V14.01,2013-05-08 07:16:00,
2013-05-08 01:21:00,52.5,29.5,30.13,NW,313,5.8,5.8,41,0.00,,OVC100,0.00,VWS V14.01,2013-05-08 07:21:00,
2013-05-08 01:26:00,52.2,29.8,30.13,NW,313,5.8,5.8,42,0.00,,OVC100,0.00,VWS V14.01,2013-05-08 07:26:00,
2013-05-08 01:31:00,51.8,30.0,30.13,NW,313,5.8,5.8,43,0.00,,OVC100,0.00,VWS V14.01,2013-05-08 07:31:00,
2013-05-08 01:36:00,52.0,30.2,30.13,NW,313,5.8,5.8,43,0.00,,OVC100,0.00,VWS V14.01,2013-05-08 07:36:00,
2013-05-08 01:41:00,51.6,31.0,30.13,NW,313,5.8,5.8,45,0.00,,OVC100,0.00,VWS V14.01,2013-05-08 07:41:00,
2013-05-08 01:46:00,51.6,31.0,30.13,NW,313,5.8,5.8,45,0.00,,OVC100,0.00,VWS V14.01,2013-05-08 07:46:00,
2013-05-08 01:51:00,50.9,30.9,30.13,NW,313,5.8,5.8,46,0.00,,OVC100,0.00,VWS V14.01,2013-05-08 07:51:00,
2013-05-08 01:55:00,51.4,30.8,30.13,NW,313,5.8,5.8,45,0.00,,OVC100,0.00,VWS V14.01,2013-05-08 07:55:00,
2013-05-08 02:00:00,50.9,30.9,30.13,NW,313,5.8,5.8,46,0.00,,OVC100,0.00,VWS V14.01,2013-05-08 08:00:00,
2013-05-08 02:05:00,50.9,30.9,30.13,NW,313,5.8,5.8,46,0.00,,OVC100,0.00,VWS V14.01,2013-05-08 08:05:00,
2013-05-08 02:10:00,50.0,30.6,30.13,NW,313,5.8,5.8,47,0.00,,OVC100,0.00,VWS V14.01,2013-05-08 08:10:00,
2013-05-08 02:15:00,49.8,30.9,30.13,NW,313,5.8,5.8,48,0.00,,OVC100,0.00,VWS V14.01,2013-05-08 08:15:00,
2013-05-08 02:20:00,50.2,30.2,30.13,NW,313,5.8,5.8,46,0.00,,OVC100,0.00,VWS V14.01,2013-05-08 08:20:00,
2013-05-08 02:25:00,49.6,30.8,30.13,NNW,328,5.4,5.8,48,0.00,,OVC100,0.00,VWS V14.01,2013-05-08 08:25:00,
2013-05-08 02:30:00,49.6,30.8,30.13,NNW,328,5.4,5.8,48,0.00,,OVC100,0.00,VWS V14.01,2013-05-08 08:30:00,
2013-05-08 02:35:00,48.7,31.0,30.13,NNW,328,5.4,5.4,50,0.00,,OVC100,0.00,VWS V14.01,2013-05-08 08:35:00,
2013-05-08 02:40:00,48.2,30.9,30.13,NNW,328,5.4,5.4,51,0.00,,OVC100,0.00,VWS V14.01,2013-05-08 08:40:00,
2013-05-08 02:45:00,48.4,31.1,30.13,NNW,328,5.4,5.4,51,0.00,,OVC100,0.00,VWS V14.01,2013-05-08 08:45:00,
2013-05-08 02:50:00,48.4,31.1,30.13,NNW,328,5.4,5.4,51,0.00,,OVC100,0.00,VWS V14.01,2013-05-08 08:50:00,
2013-05-08 02:55:00,48.4,31.1,30.13,NNW,328,5.4,5.4,51,0.00,,OVC100,0.00,VWS V14.01,2013-05-08 08:55:00,
2013-05-08 03:00:00,48.0,31.2,30.13,NNW,328,5.4,5.4,52,0.00,,OVC100,0.00,VWS V14.01,2013-05-08 09:00:00,
2013-05-08 03:05:00,47.7,31.4,30.13,NNW,328,5.4,5.4,53,0.00,,OVC100,0.00,VWS V14.01,2013-05-08 09:05:00,
2013-05-08 03:10:00,47.5,31.7,30.13,NNW,328,5.4,5.4,54,0.00,,OVC100,0.00,VWS V14.01,2013-05-08 09:10:00,
2013-05-08 03:15:00,47.5,31.7,30.13,NNW,328,5.4,5.4,54,0.00,,OVC100,0.00,VWS V14.01,2013-05-08 09:15:00,
2013-05-08 03:20:00,47.7,31.9,30.16,NNW,328,5.4,5.4,54,0.00,,OVC100,0.00,VWS V14.01,2013-05-08 09:20:00,
2013-05-08 03:25:00,47.5,31.2,30.16,NNW,328,5.4,5.4,53,0.00,,OVC100,0.00,VWS V14.01,2013-05-08 09:25:00,
2013-05-08 03:30:00,47.3,31.0,30.16,NNW,328,5.4,5.4,53,0.00,,OVC100,0.00,VWS V14.01,2013-05-08 09:30:00,
2013-05-08 03:35:00,46.9,31.6,30.16,NNW,328,5.4,5.4,55,0.00,,OVC100,0.00,VWS V14.01,2013-05-08 09:35:00,
2013-05-08 03:40:00,46.6,31.7,30.16,NNW,328,5.4,5.4,56,0.00,,OVC100,0.00,VWS V14.01,2013-05-08 09:40:00,
2013-05-08 03:45:00,46.4,31.6,30.16,NNW,328,5.4,5.4,56,0.00,,OVC100,0.00,VWS V14.01,2013-05-08 09:45:00,
2013-05-08 03:50:00,46.2,31.8,30.16,NNW,328,5.4,5.4,57,0.00,,OVC100,0.00,VWS V14.01,2013-05-08 09:50:00,
2013-05-08 03:55:00,46.4,31.6,30.16,NNW,328,5.4,5.4,56,0.00,,OVC100,0.00,VWS V14.01,2013-05-08 09:55:00,
2013-05-08 04:00:00,46.6,31.3,30.16,NNW,328,5.4,5.4,55,0.00,,OVC100,0.00,VWS V14.01,2013-05-08 10:00:00,
2013-05-08 04:05:00,45.9,31.5,30.16,NNW,328,5.4,5.4,57,0.00,,BKN090,0.00,VWS V14.01,2013-05-08 10:05:00,
2013-05-08 04:10:00,45.9,31.5,30.16,NNW,328,5.4,5.4,57,0.00,,BKN090,0.00,VWS V14.01,2013-05-08 10:10:00,
2013-05-08 04:15:00,45.9,31.5,30.16,NNW,328,5.4,5.4,57,0.00,,BKN090,0.00,VWS V14.01,2013-05-08 10:15:00,
2013-05-08 04:20:00,45.3,31.9,30.16,NNW,328,5.4,5.4,59,0.00,,BKN090,0.00,VWS V14.01,2013-05-08 10:20:00,
2013-05-08 04:25:00,45.1,31.7,30.16,NNW,328,5.4,5.4,59,0.00,,BKN090,0.00,VWS V14.01,2013-05-08 10:25:00,
2013-05-08 04:30:00,45.1,31.7,30.16,NNW,328,5.4,5.4,59,0.00,,BKN090,0.00,VWS V14.01,2013-05-08 10:30:00,
2013-05-08 04:35:00,45.0,31.5,30.16,NNW,328,5.4,5.4,59,0.00,,BKN090,0.00,VWS V14.01,2013-05-08 10:35:00,
2013-05-08 04:40:00,45.1,31.7,30.16,NNW,328,5.4,5.4,59,0.00,,BKN090,0.00,VWS V14.01,2013-05-08 10:40:00,
2013-05-08 04:45:00,44.1,32.3,30.16,NNW,328,5.4,5.4,63,0.00,,BKN090,0.00,VWS V14.01,2013-05-08 10:45:00,
2013-05-08 04:50:00,43.2,32.6,30.16,NNW,328,5.4,5.4,66,0.00,,BKN090,0.00,VWS V14.01,2013-05-08 10:50:00,
2013-05-08 04:55:00,43.7,32.7,30.16,NNW,328,5.4,5.4,65,0.00,,BKN090,0.00,VWS V14.01,2013-05-08 10:55:00,
2013-05-08 05:00:00,44.1,32.3,30.16,NNW,328,5.4,5.4,63,0.00,,BKN090,0.00,VWS V14.01,2013-05-08 11:00:00,
2013-05-08 05:05:00,44.1,31.9,30.16,NNW,328,5.4,5.4,62,0.00,,BKN090,0.00,VWS V14.01,2013-05-08 11:05:00,
2013-05-08 05:10:00,44.1,31.5,30.16,NNW,328,5.4,5.4,61,0.00,,BKN090,0.00,VWS V14.01,2013-05-08 11:10:00,
2013-05-08 05:15:00,43.5,31.8,30.16,NNW,328,5.4,5.4,63,0.00,,BKN090,0.00,VWS V14.01,2013-05-08 11:15:00,
2013-05-08 05:20:00,43.2,31.8,30.16,NNW,328,5.4,5.4,64,0.00,,BKN090,0.00,VWS V14.01,2013-05-08 11:20:00,
2013-05-08 05:25:00,43.0,31.6,30.16,NNW,328,5.4,5.4,64,0.00,,BKN090,0.00,VWS V14.01,2013-05-08 11:25:00,
2013-05-08 05:30:00,43.5,31.8,30.16,NNW,330,7.6,7.6,63,0.00,,BKN090,0.00,VWS V14.01,2013-05-08 11:30:00,
2013-05-08 05:35:00,43.5,31.4,30.16,NNW,330,7.6,7.6,62,0.00,,BKN090,0.00,VWS V14.01,2013-05-08 11:35:00,
2013-05-08 05:40:00,43.5,31.8,30.16,NNW,330,7.6,7.6,63,0.00,,BKN090,0.00,VWS V14.01,2013-05-08 11:40:00,
2013-05-08 05:45:00,43.5,31.8,30.16,NNW,329,5.8,11.0,63,0.00,,BKN090,0.00,VWS V14.01,2013-05-08 11:45:00,
2013-05-08 05:50:00,43.3,31.6,30.16,NNW,327,8.3,11.0,63,0.00,,BKN090,0.00,VWS V14.01,2013-05-08 11:50:00,
2013-05-08 05:55:00,43.2,31.4,30.16,NNW,337,8.3,11.0,63,0.00,,BKN090,0.00,VWS V14.01,2013-05-08 11:55:00,
2013-05-08 06:00:00,43.7,31.5,30.16,NW,322,8.3,11.0,62,0.00,,BKN090,0.00,VWS V14.01,2013-05-08 12:00:00,
2013-05-08 06:05:00,43.7,31.1,30.16,NW,315,8.7,11.4,61,0.00,,SCT110,0.00,VWS V14.01,2013-05-08 12:05:00,
2013-05-08 06:10:00,44.1,31.1,30.16,NW,323,6.3,11.4,60,0.00,,SCT110,0.00,VWS V14.01,2013-05-08 12:10:00,
2013-05-08 06:15:00,44.2,32.1,30.16,NNW,328,4.9,11.4,62,0.00,,SCT110,0.00,VWS V14.01,2013-05-08 12:15:00,
2013-05-08 06:20:00,45.1,32.1,30.16,NNW,328,4.9,11.4,60,0.00,,SCT110,0.00,VWS V14.01,2013-05-08 12:20:00,
2013-05-08 06:25:00,45.9,31.9,30.16,NNW,328,4.9,11.4,58,0.00,,SCT110,0.00,VWS V14.01,2013-05-08 12:25:00,
2013-05-08 06:30:00,46.0,31.7,30.16,NNW,328,3.6,11.4,57,0.00,,SCT110,0.00,VWS V14.01,2013-05-08 12:30:00,
2013-05-08 06:35:00,46.4,32.0,30.16,NNW,328,3.6,3.6,57,0.00,,SCT110,0.00,VWS V14.01,2013-05-08 12:35:00,
2013-05-08 06:40:00,46.6,31.7,30.16,North,7,4.0,4.0,56,0.00,,SCT110,0.00,VWS V14.01,2013-05-08 12:40:00,
2013-05-08 06:45:00,46.6,31.7,30.16,NW,323,9.6,9.6,56,0.00,,SCT110,0.00,VWS V14.01,2013-05-08 12:45:00,
2013-05-08 06:50:00,46.4,31.6,30.16,NNW,348,6.3,11.9,56,0.00,,SCT110,0.00,VWS V14.01,2013-05-08 12:50:00,
2013-05-08 06:55:00,46.8,31.5,30.16,NNW,343,5.8,11.9,55,0.00,,SCT110,0.00,VWS V14.01,2013-05-08 12:55:00,
2013-05-08 07:00:00,46.9,31.6,30.16,North,357,5.4,11.9,55,0.00,,SCT110,0.00,VWS V14.01,2013-05-08 13:00:00,
2013-05-08 07:05:00,47.7,31.9,30.19,North,3,4.9,8.7,54,0.00,,SCT100,0.00,VWS V14.01,2013-05-08 13:05:00,
2013-05-08 07:10:00,47.7,32.8,30.19,North,0,5.4,8.7,56,0.00,,SCT100,0.00,VWS V14.01,2013-05-08 13:10:00,
2013-05-08 07:15:00,47.8,32.5,30.19,North,8,6.7,8.7,55,0.00,,SCT100,0.00,VWS V14.01,2013-05-08 13:15:00,
2013-05-08 07:20:00,47.7,32.3,30.19,NNW,341,6.3,8.7,55,0.00,,SCT100,0.00,VWS V14.01,2013-05-08 13:20:00,
2013-05-08 07:25:00,47.8,32.5,30.19,North,0,5.8,9.2,55,0.00,,SCT100,0.00,VWS V14.01,2013-05-08 13:25:00,
2013-05-08 07:30:00,48.4,33.0,30.19,North,357,5.8,9.2,55,0.00,,SCT100,0.00,VWS V14.01,2013-05-08 13:30:00,
2013-05-08 07:35:00,48.9,33.5,30.19,NNE,25,5.4,8.7,55,0.00,,SCT100,0.00,VWS V14.01,2013-05-08 13:35:00,
2013-05-08 07:40:00,48.0,33.1,30.19,NNW,340,5.4,8.7,56,0.00,,SCT100,0.00,VWS V14.01,2013-05-08 13:40:00,
2013-05-08 07:45:00,49.1,34.1,30.19,North,0,5.8,10.1,56,0.00,,SCT100,0.00,VWS V14.01,2013-05-08 13:45:00,
2013-05-08 07:50:00,48.7,33.3,30.19,North,353,6.3,10.1,55,0.00,,SCT100,0.00,VWS V14.01,2013-05-08 13:50:00,
2013-05-08 07:55:00,48.9,33.5,30.19,NNW,343,8.1,10.1,55,0.00,,SCT100,0.00,VWS V14.01,2013-05-08 13:55:00,
2013-05-08 08:00:00,48.7,32.8,30.19,North,11,8.1,10.1,54,0.00,,SCT100,0.00,VWS V14.01,2013-05-08 14:00:00,
2013-05-08 08:05:00,48.9,33.0,30.19,North,0,7.6,11.0,54,0.00,,CLR,0.00,VWS V14.01,2013-05-08 14:05:00,
2013-05-08 08:10:00,48.2,32.3,30.19,North,353,6.3,13.2,54,0.00,,CLR,0.00,VWS V14.01,2013-05-08 14:10:00,
2013-05-08 08:15:00,47.5,32.6,30.19,North,353,8.3,13.2,56,0.00,,CLR,0.00,VWS V14.01,2013-05-08 14:15:00,
2013-05-08 08:20:00,47.3,32.4,30.19,NNW,337,8.1,13.2,56,0.00,,CLR,0.00,VWS V14.01,2013-05-08 14:20:00,
2013-05-08 08:25:00,47.7,33.2,30.19,NNW,348,5.4,13.2,57,0.00,,CLR,0.00,VWS V14.01,2013-05-08 14:25:00,
2013-05-08 08:30:00,50.2,32.8,30.19,North,357,8.3,13.2,51,0.00,,CLR,0.00,VWS V14.01,2013-05-08 14:30:00,
2013-05-08 08:35:00,50.5,33.6,30.19,North,0,6.3,10.1,52,0.00,,CLR,0.00,VWS V14.01,2013-05-08 14:35:00,
2013-05-08 08:40:00,51.3,33.8,30.19,North,353,5.4,12.8,51,0.00,,CLR,0.00,VWS V14.01,2013-05-08 14:40:00,
2013-05-08 08:45:00,50.5,33.1,30.19,NNW,345,9.6,12.8,51,0.00,,CLR,0.00,VWS V14.01,2013-05-08 14:45:00,
2013-05-08 08:50:00,51.4,33.4,30.19,NNW,345,7.2,12.8,50,0.00,,CLR,0.00,VWS V14.01,2013-05-08 14:50:00,
2013-05-08 08:55:00,50.0,32.1,30.19,NW,322,11.0,12.8,50,0.00,,CLR,0.00,VWS V14.01,2013-05-08 14:55:00,
2013-05-08 09:00:00,50.0,32.6,30.19,North,357,8.3,12.8,51,0.00,,CLR,0.00,VWS V14.01,2013-05-08 15:00:00,
2013-05-08 09:05:00,50.9,33.4,30.19,North,357,8.7,15.4,51,0.00,,CLR,0.00,VWS V14.01,2013-05-08 15:05:00,
2013-05-08 09:10:00,52.3,33.8,30.19,North,353,8.7,15.4,49,0.00,,CLR,0.00,VWS V14.01,2013-05-08 15:10:00,
2013-05-08 09:15:00,51.1,33.1,30.19,North,1,15.4,15.4,50,0.00,,CLR,0.00,VWS V14.01,2013-05-08 15:15:00,
2013-05-08 09:20:00,49.8,31.9,30.19,NW,310,12.3,15.4,50,0.00,,CLR,0.00,VWS V14.01,2013-05-08 15:20:00,
2013-05-08 09:25:00,52.7,33.6,30.19,NNW,342,13.2,15.4,48,0.00,,CLR,0.00,VWS V14.01,2013-05-08 15:25:00,
2013-05-08 09:30:00,54.7,34.9,30.19,NNW,333,11.0,15.4,47,0.00,,CLR,0.00,VWS V14.01,2013-05-08 15:30:00,
2013-05-08 09:35:00,53.4,33.2,30.19,North,6,11.0,13.2,46,0.00,,CLR,0.00,VWS V14.01,2013-05-08 15:35:00,
2013-05-08 09:40:00,54.0,33.7,30.19,North,0,13.2,14.5,46,0.00,,CLR,0.00,VWS V14.01,2013-05-08 15:40:00,
2013-05-08 09:45:00,54.1,34.4,30.19,North,0,10.5,14.5,47,0.00,,CLR,0.00,VWS V14.01,2013-05-08 15:45:00,
2013-05-08 09:50:00,53.8,35.1,30.22,North,9,8.3,14.5,49,0.00,,CLR,0.00,VWS V14.01,2013-05-08 15:50:00,
2013-05-08 09:55:00,52.7,33.6,30.22,NNW,342,8.1,14.5,48,0.00,,CLR,0.00,VWS V14.01,2013-05-08 15:55:00,
2013-05-08 10:00:00,53.1,34.9,30.22,North,353,13.2,14.5,50,0.00,,CLR,0.00,VWS V14.01,2013-05-08 16:00:00,
2013-05-08 10:05:00,53.2,34.6,30.22,NNE,12,8.7,11.0,49,0.00,,CLR,0.00,VWS V14.01,2013-05-08 16:05:00,
2013-05-08 10:10:00,54.5,34.7,30.22,North,353,13.2,13.2,47,0.00,,CLR,0.00,VWS V14.01,2013-05-08 16:10:00,
2013-05-08 10:15:00,53.8,34.6,30.22,North,5,10.1,13.2,48,0.00,,CLR,0.00,VWS V14.01,2013-05-08 16:15:00,
2013-05-08 10:20:00,55.4,36.6,30.19,NW,322,10.1,13.2,49,0.00,,CLR,0.00,VWS V14.01,2013-05-08 16:20:00,
2013-05-08 10:25:00,55.2,34.8,30.19,North,353,8.7,13.2,46,0.00,,CLR,0.00,VWS V14.01,2013-05-08 16:25:00,
2013-05-08 10:30:00,55.9,34.9,30.19,NNE,14,6.3,13.2,45,0.00,,CLR,0.00,VWS V14.01,2013-05-08 16:30:00,
2013-05-08 10:35:00,55.9,33.2,30.22,NNW,345,10.1,10.1,42,0.00,,CLR,0.00,VWS V14.01,2013-05-08 16:35:00,
2013-05-08 10:40:00,56.1,32.2,30.22,NNE,19,8.7,10.5,40,0.00,,CLR,0.00,VWS V14.01,2013-05-08 16:40:00,
2013-05-08 10:45:00,56.3,31.7,30.22,North,11,10.1,10.5,39,0.00,,CLR,0.00,VWS V14.01,2013-05-08 16:45:00,
2013-05-08 10:50:00,56.5,31.8,30.22,North,357,10.5,13.2,39,0.00,,CLR,0.00,VWS V14.01,2013-05-08 16:50:00,
2013-05-08 10:55:00,56.5,31.2,30.22,North,353,6.3,13.2,38,0.00,,CLR,0.00,VWS V14.01,2013-05-08 16:55:00,
2013-05-08 11:00:00,56.8,32.8,30.22,NNW,328,6.3,13.2,40,0.00,,CLR,0.00,VWS V14.01,2013-05-08 17:00:00,
2013-05-08 11:05:00,56.7,32.6,30.22,North,357,8.1,13.2,40,0.00,,BKN090,0.00,VWS V14.01,2013-05-08 17:05:00,
2013-05-08 11:10:00,56.8,34.0,30.22,North,353,10.1,13.2,42,0.00,,BKN090,0.00,VWS V14.01,2013-05-08 17:10:00,
2013-05-08 11:15:00,56.8,33.4,30.22,NNW,341,8.1,13.2,41,0.00,,BKN090,0.00,VWS V14.01,2013-05-08 17:15:00,
2013-05-08 11:20:00,55.6,32.9,30.22,North,357,8.3,13.2,42,0.00,,BKN090,0.00,VWS V14.01,2013-05-08 17:20:00,
2013-05-08 11:25:00,56.7,35.6,30.22,NW,307,8.7,13.2,45,0.00,,BKN090,0.00,VWS V14.01,2013-05-08 17:25:00,
2013-05-08 11:30:00,55.4,32.1,30.22,North,3,5.8,13.2,41,0.00,,BKN090,0.00,VWS V14.01,2013-05-08 17:30:00,
2013-05-08 11:35:00,56.8,35.2,30.22,North,353,8.7,10.1,44,0.00,,BKN090,0.00,VWS V14.01,2013-05-08 17:35:00,
2013-05-08 11:40:00,57.0,33.0,30.22,North,353,5.4,10.5,40,0.00,,BKN090,0.00,VWS V14.01,2013-05-08 17:40:00,
2013-05-08 11:45:00,56.5,32.5,30.22,North,357,8.7,10.5,40,0.00,,BKN090,0.00,VWS V14.01,2013-05-08 17:45:00,
2013-05-08 11:50:00,57.9,34.4,30.22,North,353,3.6,10.5,41,0.00,,BKN090,0.00,VWS V14.01,2013-05-08 17:50:00,
2013-05-08 11:55:00,58.8,32.6,30.22,NNE,33,8.7,11.0,37,0.00,,BKN090,0.00,VWS V14.01,2013-05-08 17:55:00,
2013-05-08 12:00:00,59.0,33.5,30.22,North,6,7.6,11.0,38,0.00,,BKN090,0.00,VWS V14.01,2013-05-08 18:00:00,
2013-05-08 12:05:00,58.8,33.9,30.22,NNW,346,7.6,7.6,39,0.00,,CLR,0.00,VWS V14.01,2013-05-08 18:05:00,
2013-05-08 12:10:00,58.8,32.6,30.22,NNE,17,3.6,8.1,37,0.00,,CLR,0.00,VWS V14.01,2013-05-08 18:10:00,
2013-05-08 12:15:00,58.8,33.3,30.22,ENE,62,6.3,11.0,38,0.00,,CLR,0.00,VWS V14.01,2013-05-08 18:15:00,
2013-05-08 12:20:00,59.2,33.0,30.22,NNW,345,6.3,11.0,37,0.00,,CLR,0.00,VWS V14.01,2013-05-08 18:20:00,
2013-05-08 12:25:00,59.4,31.7,30.22,NNW,330,6.3,11.0,35,0.00,,CLR,0.00,VWS V14.01,2013-05-08 18:25:00,
2013-05-08 12:30:00,60.1,32.4,30.22,East,91,3.6,11.0,35,0.00,,CLR,0.00,VWS V14.01,2013-05-08 18:30:00,
2013-05-08 12:35:00,61.3,34.2,30.22,ENE,73,4.0,8.7,36,0.00,,CLR,0.00,VWS V14.01,2013-05-08 18:35:00,
2013-05-08 12:40:00,60.8,33.0,30.22,NNE,26,5.4,9.2,35,0.00,,CLR,0.00,VWS V14.01,2013-05-08 18:40:00,
2013-05-08 12:45:00,60.1,31.6,30.22,NNE,14,5.8,9.2,34,0.00,,CLR,0.00,VWS V14.01,2013-05-08 18:45:00,
2013-05-08 12:50:00,60.8,33.0,30.22,WNW,303,8.1,9.2,35,0.00,,CLR,0.00,VWS V14.01,2013-05-08 18:50:00,
2013-05-08 12:55:00,61.7,33.1,30.22,NNW,330,4.0,9.2,34,0.00,,CLR,0.00,VWS V14.01,2013-05-08 18:55:00,
2013-05-08 13:00:00,63.5,33.9,30.22,NNW,334,3.1,9.2,33,0.00,,CLR,0.00,VWS V14.01,2013-05-08 19:00:00,
2013-05-08 13:05:00,64.0,35.1,30.22,NE,34,3.1,8.7,34,0.00,,CLR,0.00,VWS V14.01,2013-05-08 19:05:00,
2013-05-08 13:10:00,61.5,32.9,30.22,NNW,332,7.6,8.7,34,0.00,,CLR,0.00,VWS V14.01,2013-05-08 19:10:00,
2013-05-08 13:15:00,64.4,34.7,30.22,North,10,8.1,8.7,33,0.00,,CLR,0.00,VWS V14.01,2013-05-08 19:15:00,
2013-05-08 13:20:00,62.8,34.0,30.22,NE,50,6.3,8.7,34,0.00,,CLR,0.00,VWS V14.01,2013-05-08 19:20:00,
2013-05-08 13:25:00,63.0,33.4,30.22,North,7,6.3,11.4,33,0.00,,CLR,0.00,VWS V14.01,2013-05-08 19:25:00,
2013-05-08 13:30:00,62.6,33.9,30.22,NNW,344,3.6,11.4,34,0.00,,CLR,0.00,VWS V14.01,2013-05-08 19:30:00,
2013-05-08 13:35:00,61.0,32.4,30.22,North,353,4.5,8.3,34,0.00,,CLR,0.00,VWS V14.01,2013-05-08 19:35:00,
2013-05-08 13:40:00,61.7,31.6,30.22,West,281,3.1,8.3,32,0.00,,CLR,0.00,VWS V14.01,2013-05-08 19:40:00,
2013-05-08 13:45:00,60.8,31.5,30.22,North,8,6.3,8.7,33,0.00,,CLR,0.00,VWS V14.01,2013-05-08 19:45:00,
2013-05-08 13:50:00,61.5,31.4,30.22,NE,40,2.7,8.7,32,0.00,,CLR,0.00,VWS V14.01,2013-05-08 19:50:00,
2013-05-08 13:55:00,63.1,33.6,30.22,NE,42,4.9,10.5,33,0.00,,CLR,0.00,VWS V14.01,2013-05-08 19:55:00,
2013-05-08 14:00:00,63.1,34.3,30.22,NNW,334,5.8,10.5,34,0.00,,CLR,0.00,VWS V14.01,2013-05-08 20:00:00,
2013-05-08 14:05:00,62.1,33.4,30.22,North,0,7.6,7.6,34,0.00,,FEW090,0.00,VWS V14.01,2013-05-08 20:05:00,
2013-05-08 14:10:00,62.8,34.0,30.22,East,81,6.3,9.2,34,0.00,,FEW090,0.00,VWS V14.01,2013-05-08 20:10:00,
2013-05-08 14:15:00,61.5,32.9,30.22,North,0,7.6,11.0,34,0.00,,FEW090,0.00,VWS V14.01,2013-05-08 20:15:00,
2013-05-08 14:20:00,61.7,33.1,30.22,North,0,8.1,11.0,34,0.00,,FEW090,0.00,VWS V14.01,2013-05-08 20:20:00,
2013-05-08 14:25:00,62.2,33.5,30.22,NNE,16,6.3,11.0,34,0.00,,FEW090,0.00,VWS V14.01,2013-05-08 20:25:00,
2013-05-08 14:30:00,63.7,34.1,30.22,NNE,22,11.0,14.1,33,0.00,,FEW090,0.00,VWS V14.01,2013-05-08 20:30:00,
2013-05-08 14:35:00,62.6,33.1,30.22,North,357,8.3,8.7,33,0.00,,FEW090,0.00,VWS V14.01,2013-05-08 20:35:00,
2013-05-08 14:40:00,63.0,33.4,30.22,NNE,22,7.6,8.7,33,0.00,,FEW090,0.00,VWS V14.01,2013-05-08 20:40:00,
2013-05-08 14:45:00,62.8,33.3,30.22,North,357,5.8,8.7,33,0.00,,FEW090,0.00,VWS V14.01,2013-05-08 20:45:00,
2013-05-08 14:50:00,62.6,33.1,30.22,NW,317,8.7,11.9,33,0.00,,FEW090,0.00,VWS V14.01,2013-05-08 20:50:00,
2013-05-08 14:55:00,63.9,31.9,30.22,NE,45,5.4,11.9,30,0.00,,FEW090,0.00,VWS V14.01,2013-05-08 20:55:00,
2013-05-08 14:59:00,66.7,31.7,30.22,North,6,5.8,11.9,27,0.00,,FEW090,0.00,VWS V14.01,2013-05-08 20:59:00,
2013-05-08 15:04:00,66.6,31.6,30.19,North,357,5.8,10.5,27,0.00,,CLR,0.00,VWS V14.01,2013-05-08 21:04:00,
2013-05-08 15:09:00,66.2,31.3,30.19,NE,37,8.1,11.0,27,0.00,,CLR,0.00,VWS V14.01,2013-05-08 21:09:00,
2013-05-08 15:14:00,66.6,31.6,30.19,North,2,7.6,11.0,27,0.00,,CLR,0.00,VWS V14.01,2013-05-08 21:14:00,
2013-05-08 15:19:00,64.8,30.9,30.19,NNE,13,5.4,11.0,28,0.00,,CLR,0.00,VWS V14.01,2013-05-08 21:19:00,
2013-05-08 15:24:00,66.4,31.4,30.19,North,357,8.1,11.0,27,0.00,,CLR,0.00,VWS V14.01,2013-05-08 21:24:00,
2013-05-08 15:29:00,67.8,31.7,30.19,North,353,4.0,11.0,26,0.00,,CLR,0.00,VWS V14.01,2013-05-08 21:29:00,
2013-05-08 15:34:00,66.7,29.8,30.19,NNW,332,4.9,11.0,25,0.00,,CLR,0.00,VWS V14.01,2013-05-08 21:34:00,
2013-05-08 15:39:00,66.7,29.8,30.19,NW,310,4.0,11.0,25,0.00,,CLR,0.00,VWS V14.01,2013-05-08 21:39:00,
2013-05-08 15:44:00,64.6,29.9,30.19,North,0,6.3,11.0,27,0.00,,CLR,0.00,VWS V14.01,2013-05-08 21:44:00,
2013-05-08 15:49:00,64.8,30.0,30.19,NW,325,8.1,11.0,27,0.00,,CLR,0.00,VWS V14.01,2013-05-08 21:49:00,
2013-05-08 15:54:00,64.4,30.6,30.19,NNE,27,4.0,11.0,28,0.00,,CLR,0.00,VWS V14.01,2013-05-08 21:54:00,
2013-05-08 15:59:00,66.4,30.5,30.19,North,7,6.3,11.4,26,0.00,,CLR,0.00,VWS V14.01,2013-05-08 21:59:00,
2013-05-08 16:04:00,68.9,31.7,30.19,NE,46,3.6,8.3,25,0.00,,SCT100,0.00,VWS V14.01,2013-05-08 22:04:00,
2013-05-08 16:09:00,68.2,31.0,30.19,North,11,4.0,8.7,25,0.00,,SCT100,0.00,VWS V14.01,2013-05-08 22:09:00,
2013-05-08 16:14:00,66.2,29.4,30.19,North,353,5.4,10.5,25,0.00,,SCT100,0.00,VWS V14.01,2013-05-08 22:14:00,
2013-05-08 16:19:00,65.8,29.1,30.19,North,11,7.6,10.5,25,0.00,,SCT100,0.00,VWS V14.01,2013-05-08 22:19:00,
2013-05-08 16:24:00,65.7,29.9,30.19,NE,47,3.6,10.5,26,0.00,,SCT100,0.00,VWS V14.01,2013-05-08 22:24:00,
2013-05-08 16:29:00,67.8,29.7,30.19,NNE,20,5.8,10.5,24,0.00,,SCT100,0.00,VWS V14.01,2013-05-08 22:29:00,
2013-05-08 16:34:00,70.7,31.1,30.19,NNE,18,4.9,8.3,23,0.00,,SCT100,0.00,VWS V14.01,2013-05-08 22:34:00,
2013-05-08 16:39:00,67.1,30.1,30.19,NW,316,5.8,10.1,25,0.00,,SCT100,0.00,VWS V14.01,2013-05-08 22:39:00,
2013-05-08 16:44:00,64.2,28.6,30.19,NNE,19,7.6,10.5,26,0.00,,SCT100,0.00,VWS V14.01,2013-05-08 22:44:00,
2013-05-08 16:49:00,66.4,30.5,30.19,North,5,4.9,10.5,26,0.00,,SCT100,0.00,VWS V14.01,2013-05-08 22:49:00,
2013-05-08 16:54:00,67.6,30.6,30.19,NNE,28,7.6,10.5,25,0.00,,SCT100,0.00,VWS V14.01,2013-05-08 22:54:00,
2013-05-08 16:59:00,68.9,29.6,30.19,NNW,341,4.9,10.5,23,0.00,,SCT100,0.00,VWS V14.01,2013-05-08 22:59:00,
2013-05-08 17:04:00,68.9,29.6,30.19,ENE,68,6.3,9.2,23,0.00,,OVC100,0.00,VWS V14.01,2013-05-08 23:04:00,
2013-05-08 17:09:00,67.1,29.1,30.19,North,357,5.8,9.2,24,0.00,,OVC100,0.00,VWS V14.01,2013-05-08 23:09:00,
2013-05-08 17:14:00,67.6,29.6,30.19,NNW,328,3.1,9.2,24,0.00,,OVC100,0.00,VWS V14.01,2013-05-08 23:14:00,
2013-05-08 17:19:00,67.3,30.3,30.19,NNE,12,5.4,9.2,25,0.00,,OVC100,0.00,VWS V14.01,2013-05-08 23:19:00,
2013-05-08 17:24:00,68.5,29.3,30.19,North,353,5.8,9.2,23,0.00,,OVC100,0.00,VWS V14.01,2013-05-08 23:24:00,
2013-05-08 17:29:00,68.9,30.6,30.19,NNE,23,4.9,9.2,24,0.00,,OVC100,0.00,VWS V14.01,2013-05-08 23:29:00,
2013-05-08 17:34:00,66.9,29.0,30.19,North,4,3.6,8.1,24,0.00,,OVC100,0.00,VWS V14.01,2013-05-08 23:34:00,
2013-05-08 17:39:00,65.7,28.9,30.19,NNE,19,5.8,8.7,25,0.00,,OVC100,0.00,VWS V14.01,2013-05-08 23:39:00,
2013-05-08 17:44:00,66.7,29.8,30.19,NNW,338,6.3,8.7,25,0.00,,OVC100,0.00,VWS V14.01,2013-05-08 23:44:00,
2013-05-08 17:49:00,65.8,29.1,30.19,North,349,5.8,11.0,25,0.00,,OVC100,0.00,VWS V14.01,2013-05-08 23:49:00,
2013-05-08 17:54:00,65.7,28.9,30.19,NNW,333,5.8,11.0,25,0.00,,OVC100,0.00,VWS V14.01,2013-05-08 23:54:00,
2013-05-08 17:59:00,64.8,28.1,30.19,NNW,341,5.8,11.0,25,0.00,,OVC100,0.00,VWS V14.01,2013-05-08 23:59:00,
2013-05-08 18:04:00,64.8,28.1,30.19,North,353,6.3,7.6,25,0.00,,FEW100,0.00,VWS V14.01,2013-05-09 00:04:00,
2013-05-08 18:09:00,65.7,28.9,30.19,NNE,17,3.1,7.6,25,0.00,,FEW100,0.00,VWS V14.01,2013-05-09 00:09:00,
2013-05-08 18:14:00,66.6,29.7,30.19,North,0,4.0,7.6,25,0.00,,FEW100,0.00,VWS V14.01,2013-05-09 00:14:00,
2013-05-08 18:19:00,65.7,28.9,30.19,North,5,6.3,8.3,25,0.00,,FEW100,0.00,VWS V14.01,2013-05-09 00:19:00,
2013-05-08 18:24:00,66.0,29.2,30.19,North,0,5.4,8.3,25,0.00,,FEW100,0.00,VWS V14.01,2013-05-09 00:24:00,
2013-05-08 18:29:00,64.2,27.7,30.19,NNE,17,3.6,8.7,25,0.00,,FEW100,0.00,VWS V14.01,2013-05-09 00:29:00,
2013-05-08 18:34:00,65.5,28.8,30.19,NNW,333,3.1,6.3,25,0.00,,FEW100,0.00,VWS V14.01,2013-05-09 00:34:00,
2013-05-08 18:39:00,66.2,29.4,30.19,North,8,3.6,6.3,25,0.00,,FEW100,0.00,VWS V14.01,2013-05-09 00:39:00,
2013-05-08 18:44:00,66.2,29.4,30.19,NE,39,5.8,7.6,25,0.00,,FEW100,0.00,VWS V14.01,2013-05-09 00:44:00,
2013-05-08 18:49:00,65.7,28.9,30.19,North,4,4.9,8.7,25,0.00,,FEW100,0.00,VWS V14.01,2013-05-09 00:49:00,
2013-05-08 18:54:00,65.1,28.5,30.19,NNE,22,8.7,8.7,25,0.00,,FEW100,0.00,VWS V14.01,2013-05-09 00:54:00,
2013-05-08 18:59:00,64.9,29.3,30.19,NNE,31,4.0,8.7,26,0.00,,FEW100,0.00,VWS V14.01,2013-05-09 00:59:00,
2013-05-08 19:04:00,63.9,29.3,30.19,ENE,68,8.3,8.3,27,0.00,,CLR,0.00,VWS V14.01,2013-05-09 01:04:00,
2013-05-08 19:09:00,62.8,27.4,30.19,NE,39,3.1,8.7,26,0.00,,CLR,0.00,VWS V14.01,2013-05-09 01:09:00,
2013-05-08 19:14:00,60.6,27.4,30.19,ENE,68,3.6,8.7,28,0.00,,CLR,0.00,VWS V14.01,2013-05-09 01:14:00,
2013-05-08 19:19:00,60.1,26.9,30.19,NE,56,7.6,8.7,28,0.00,,CLR,0.00,VWS V14.01,2013-05-09 01:19:00,
2013-05-08 19:24:00,60.3,27.0,30.19,NE,44,3.6,8.7,28,0.00,,CLR,0.00,VWS V14.01,2013-05-09 01:24:00,
2013-05-08 19:29:00,59.5,26.4,30.19,NE,54,4.0,8.7,28,0.00,,CLR,0.00,VWS V14.01,2013-05-09 01:29:00,
2013-05-08 19:34:00,59.7,27.4,30.19,NNE,33,2.7,5.4,29,0.00,,CLR,0.00,VWS V14.01,2013-05-09 01:34:00,
2013-05-08 19:39:00,57.7,27.3,30.19,ENE,59,4.9,5.8,31,0.00,,CLR,0.00,VWS V14.01,2013-05-09 01:39:00,
2013-05-08 19:44:00,55.9,28.7,30.19,NNE,24,4.0,5.8,35,0.00,,CLR,0.00,VWS V14.01,2013-05-09 01:44:00,
2013-05-08 19:49:00,54.5,28.8,30.19,NNE,32,4.0,5.8,37,0.00,,CLR,0.00,VWS V14.01,2013-05-09 01:49:00,
2013-05-08 19:54:00,53.4,28.5,30.19,NNE,30,0.0,5.8,38,0.00,,CLR,0.00,VWS V14.01,2013-05-09 01:54:00,
2013-05-08 19:59:00,52.2,30.4,30.19,North,5,0.0,5.8,43,0.00,,CLR,0.00,VWS V14.01,2013-05-09 01:59:00,
2013-05-08 20:04:00,51.3,30.1,30.22,West,265,3.6,3.6,44,0.00,,OVC100,0.00,VWS V14.01,2013-05-09 02:04:00,
2013-05-08 20:09:00,49.5,30.6,30.22,SW,230,4.0,4.9,48,0.00,,OVC100,0.00,VWS V14.01,2013-05-09 02:09:00,
2013-05-08 20:14:00,48.6,32.2,30.22,WSW,247,4.9,5.8,53,0.00,,OVC100,0.00,VWS V14.01,2013-05-09 02:14:00,
2013-05-08 20:19:00,47.1,31.8,30.22,WSW,244,5.4,5.8,55,0.00,,OVC100,0.00,VWS V14.01,2013-05-09 02:19:00,
2013-05-08 20:24:00,46.4,32.4,30.22,WSW,238,5.8,6.3,58,0.00,,OVC100,0.00,VWS V14.01,2013-05-09 02:24:00,
2013-05-08 20:29:00,45.7,32.6,30.22,WSW,238,6.7,6.7,60,0.00,,OVC100,0.00,VWS V14.01,2013-05-09 02:29:00,
2013-05-08 20:34:00,45.5,32.4,30.22,West,266,4.9,7.6,60,0.00,,OVC100,0.00,VWS V14.01,2013-05-09 02:34:00,
2013-05-08 20:39:00,46.0,31.2,30.22,WNW,287,5.4,7.6,56,0.00,,OVC100,0.00,VWS V14.01,2013-05-09 02:39:00,
2013-05-08 20:44:00,47.3,31.0,30.22,SW,226,9.6,10.1,53,0.00,,OVC100,0.00,VWS V14.01,2013-05-09 02:44:00,
2013-05-08 20:49:00,47.3,31.0,30.22,WSW,249,6.3,10.1,53,0.00,,OVC100,0.00,VWS V14.01,2013-05-09 02:49:00,
2013-05-08 20:54:00,46.2,31.4,30.22,WSW,239,6.3,10.1,56,0.00,,OVC100,0.00,VWS V14.01,2013-05-09 02:54:00,
2013-05-08 20:59:00,45.9,31.1,30.22,SW,230,4.9,10.1,56,0.00,,OVC100,0.00,VWS V14.01,2013-05-09 02:59:00,
2013-05-08 21:04:00,46.0,31.2,30.22,WSW,243,5.4,6.3,56,0.00,,FEW100,0.00,VWS V14.01,2013-05-09 03:04:00,
2013-05-08 21:09:00,46.0,31.2,30.22,WSW,240,8.3,8.3,56,0.00,,FEW100,0.00,VWS V14.01,2013-05-09 03:09:00,
2013-05-08 21:14:00,45.9,31.1,30.22,WSW,241,7.6,8.3,56,0.00,,FEW100,0.00,VWS V14.01,2013-05-09 03:14:00,
2013-05-08 21:19:00,45.9,31.1,30.22,WSW,256,5.8,8.3,56,0.00,,FEW100,0.00,VWS V14.01,2013-05-09 03:19:00,
2013-05-08 21:24:00,46.2,31.0,30.22,WSW,247,5.8,8.7,55,0.00,,FEW100,0.00,VWS V14.01,2013-05-09 03:24:00,
2013-05-08 21:29:00,45.7,30.9,30.22,WSW,248,5.8,8.7,56,0.00,,FEW100,0.00,VWS V14.01,2013-05-09 03:29:00,
2013-05-08 21:34:00,45.5,30.7,30.22,West,259,5.8,7.6,56,0.00,,FEW100,0.00,VWS V14.01,2013-05-09 03:34:00,
2013-05-08 21:39:00,46.0,30.8,30.22,West,266,5.8,8.3,55,0.00,,FEW100,0.00,VWS V14.01,2013-05-09 03:39:00,
2013-05-08 21:44:00,46.0,30.8,30.22,West,262,6.7,8.3,55,0.00,,FEW100,0.00,VWS V14.01,2013-05-09 03:44:00,
2013-05-08 21:49:00,46.4,30.2,30.22,WSW,254,7.6,8.3,53,0.00,,FEW100,0.00,VWS V14.01,2013-05-09 03:49:00,
2013-05-08 21:54:00,46.2,30.0,30.22,WSW,243,8.1,9.2,53,0.00,,FEW100,0.00,VWS V14.01,2013-05-09 03:54:00,
2013-05-08 21:59:00,45.5,30.3,30.22,WSW,241,5.8,9.2,55,0.00,,FEW100,0.00,VWS V14.01,2013-05-09 03:59:00,
2013-05-08 22:01:00,45.5,30.3,30.22,WSW,238,7.6,9.2,55,0.00,,FEW100,0.00,VWS V14.01,2013-05-09 04:01:00,
2013-05-08 22:06:00,46.2,30.0,30.22,WSW,254,12.8,12.8,53,0.00,,CLR,0.00,VWS V14.01,2013-05-09 04:06:00,
2013-05-08 22:11:00,46.4,29.8,30.22,WSW,248,5.4,13.2,52,0.00,,CLR,0.00,VWS V14.01,2013-05-09 04:11:00,
2013-05-08 22:16:00,46.2,30.0,30.22,WSW,237,8.7,13.2,53,0.00,,CLR,0.00,VWS V14.01,2013-05-09 04:16:00,
2013-05-08 22:21:00,45.9,29.7,30.22,West,265,7.6,13.2,53,0.00,,CLR,0.00,VWS V14.01,2013-05-09 04:21:00,
2013-05-08 22:26:00,45.7,29.5,30.22,West,260,10.5,13.2,53,0.00,,CLR,0.00,VWS V14.01,2013-05-09 04:26:00,
2013-05-08 22:31:00,45.7,29.5,30.22,West,271,8.1,13.2,53,0.00,,CLR,0.00,VWS V14.01,2013-05-09 04:31:00,
2013-05-08 22:36:00,45.5,29.4,30.22,West,270,6.7,10.5,53,0.00,,CLR,0.00,VWS V14.01,2013-05-09 04:36:00,
2013-05-08 22:41:00,45.5,29.4,30.22,West,279,8.1,10.5,53,0.00,,CLR,0.00,VWS V14.01,2013-05-09 04:41:00,
2013-05-08 22:46:00,45.9,29.7,30.22,WSW,251,11.9,11.9,53,0.00,,CLR,0.00,VWS V14.01,2013-05-09 04:46:00,
2013-05-08 22:51:00,45.3,29.2,30.22,WSW,255,10.5,12.3,53,0.00,,CLR,0.00,VWS V14.01,2013-05-09 04:51:00,
2013-05-08 22:56:00,45.3,29.7,30.22,WSW,248,11.0,13.2,54,0.00,,CLR,0.00,VWS V14.01,2013-05-09 04:56:00,
2013-05-08 23:01:00,45.5,29.4,30.22,WSW,241,10.5,13.6,53,0.00,,CLR,0.00,VWS V14.01,2013-05-09 05:01:00,
2013-05-08 23:06:00,45.3,29.2,30.22,WSW,244,10.5,12.3,53,0.00,,CLR,0.00,VWS V14.01,2013-05-09 05:06:00,
2013-05-08 23:11:00,45.5,29.4,30.22,WSW,241,11.0,12.3,53,0.00,,CLR,0.00,VWS V14.01,2013-05-09 05:11:00,
2013-05-08 23:16:00,46.2,29.6,30.22,SW,227,13.2,14.5,52,0.00,,CLR,0.00,VWS V14.01,2013-05-09 05:16:00,
2013-05-08 23:21:00,46.8,29.1,30.22,SW,231,8.3,14.5,50,0.00,,CLR,0.00,VWS V14.01,2013-05-09 05:21:00,
2013-05-08 23:26:00,45.9,28.8,30.22,SW,222,5.4,14.5,51,0.00,,CLR,0.00,VWS V14.01,2013-05-09 05:26:00,
2013-05-08 23:31:00,46.2,29.1,30.22,SSW,209,8.3,14.5,51,0.00,,CLR,0.00,VWS V14.01,2013-05-09 05:31:00,
2013-05-08 23:36:00,46.0,28.5,30.22,SSW,197,8.1,11.0,50,0.00,,CLR,0.00,VWS V14.01,2013-05-09 05:36:00,
2013-05-08 23:41:00,46.8,28.6,30.22,SSW,212,11.9,12.8,49,0.00,,CLR,0.00,VWS V14.01,2013-05-09 05:41:00,
2013-05-08 23:46:00,47.7,28.4,30.22,SSW,208,12.8,15.0,47,0.00,,CLR,0.00,VWS V14.01,2013-05-09 05:46:00,
2013-05-08 23:51:00,47.3,28.6,30.22,SW,222,8.3,15.0,48,0.00,,CLR,0.00,VWS V14.01,2013-05-09 05:51:00,
2013-05-08 23:56:00,46.9,28.3,30.22,SW,218,8.7,15.0,48,0.00,,CLR,0.00,VWS V14.01,2013-05-09 05:56:00,